createdAt,value
2024-01-25T00:00:17.883Z,8.65
2024-01-25T00:01:11.191Z,8.69
2024-01-25T00:01:47.800Z,8.65
2024-01-25T00:02:22.114Z,8.60
2024-01-25T00:02:55.556Z,8.63
2024-01-25T00:03:28.812Z,8.66
2024-01-25T00:04:02.110Z,8.69
2024-01-25T00:04:35.468Z,8.68
2024-01-25T00:05:09.646Z,8.60
2024-01-25T00:05:43.072Z,8.53
2024-01-25T00:06:16.974Z,8.55
2024-01-25T00:06:50.351Z,8.61
2024-01-25T00:07:23.578Z,8.70
2024-01-25T00:07:56.454Z,8.73
2024-01-25T00:08:29.366Z,8.67
2024-01-25T00:09:02.299Z,8.62
2024-01-25T00:09:35.121Z,8.65
2024-01-25T00:10:08.795Z,8.67
2024-01-25T00:10:42.023Z,8.65
2024-01-25T00:11:14.901Z,8.69
2024-01-25T00:11:47.722Z,8.73
2024-01-25T00:12:20.920Z,8.72
2024-01-25T00:12:53.901Z,8.72
2024-01-25T00:13:27.099Z,8.77
2024-01-25T00:14:00.122Z,8.69
2024-01-25T00:14:33.087Z,8.63
2024-01-25T00:15:06.612Z,8.64
2024-01-25T00:15:39.552Z,8.65
2024-01-25T00:16:12.878Z,8.70
2024-01-25T00:16:46.012Z,8.74
2024-01-25T00:17:18.930Z,8.74
2024-01-25T00:17:51.953Z,8.67
2024-01-25T00:18:24.985Z,8.53
2024-01-25T00:18:58.058Z,8.43
2024-01-25T00:19:31.194Z,8.41
2024-01-25T00:20:06.681Z,8.47
2024-01-25T00:20:39.883Z,8.60
2024-01-25T00:21:12.969Z,8.69
2024-01-25T00:21:46.109Z,8.73
2024-01-25T00:22:19.298Z,8.73
2024-01-25T00:22:52.401Z,8.78
2024-01-25T00:23:25.345Z,8.86
2024-01-25T00:23:58.249Z,8.91
2024-01-25T00:25:21.378Z,8.98
2024-01-25T00:25:54.549Z,8.89
2024-01-25T00:26:27.517Z,8.86
2024-01-25T00:27:00.622Z,8.89
2024-01-25T00:27:34.161Z,8.91
2024-01-25T00:28:07.465Z,8.92
2024-01-25T00:28:40.752Z,8.95
2024-01-25T00:29:13.586Z,8.99
2024-01-25T00:29:46.490Z,8.96
2024-01-25T00:30:19.398Z,8.86
2024-01-25T00:30:52.459Z,8.81
2024-01-25T00:31:25.951Z,8.90
2024-01-25T00:31:59.135Z,8.80
2024-01-25T00:32:32.145Z,8.75
2024-01-25T00:33:05.592Z,8.79
2024-01-25T00:33:38.913Z,8.85
2024-01-25T00:34:12.695Z,8.91
2024-01-25T00:34:46.511Z,8.87
2024-01-25T00:35:20.020Z,8.81
2024-01-25T00:35:53.442Z,8.75
2024-01-25T00:36:26.830Z,8.81
2024-01-25T00:37:00.111Z,8.74
2024-01-25T00:37:36.410Z,8.66
2024-01-25T00:38:10.212Z,8.70
2024-01-25T00:38:43.452Z,8.72
2024-01-25T00:39:16.551Z,8.79
2024-01-25T00:39:50.963Z,8.90
2024-01-25T00:40:25.587Z,8.92
2024-01-25T00:40:58.731Z,8.84
2024-01-25T00:41:31.708Z,8.86
2024-01-25T00:42:06.375Z,8.85
2024-01-25T00:42:42.859Z,8.85
2024-01-25T00:43:16.129Z,8.80
2024-01-25T00:43:49.474Z,8.81
2024-01-25T00:44:22.910Z,8.82
2024-01-25T00:44:56.090Z,8.86
2024-01-25T00:45:31.966Z,8.81
2024-01-25T00:46:05.651Z,8.77
2024-01-25T00:46:40.497Z,8.80
2024-01-25T00:47:14.271Z,8.80
2024-01-25T00:47:47.697Z,8.87
2024-01-25T00:48:20.944Z,8.90
2024-01-25T00:48:54.284Z,8.78
2024-01-25T00:49:27.650Z,8.71
2024-01-25T00:50:01.206Z,8.72
2024-01-25T00:50:34.531Z,8.71
2024-01-25T00:51:08.856Z,8.78
2024-01-25T00:51:42.947Z,8.83
2024-01-25T00:52:16.368Z,8.83
2024-01-25T00:52:49.494Z,8.82
2024-01-25T00:53:23.343Z,8.73
2024-01-25T00:53:56.472Z,8.68
2024-01-25T00:54:29.923Z,8.64
2024-01-25T00:55:03.624Z,8.66
2024-01-25T00:55:36.817Z,8.70
2024-01-25T00:56:10.635Z,8.70
2024-01-25T00:56:43.806Z,8.70
2024-01-25T00:57:16.839Z,8.70
2024-01-25T00:57:50.001Z,8.71
2024-01-25T00:58:23.568Z,8.68
2024-01-25T00:58:56.846Z,8.67
2024-01-25T00:59:30.149Z,8.72
2024-01-25T01:00:04.020Z,8.77
2024-01-25T01:00:37.520Z,8.83
2024-01-25T01:01:11.333Z,8.82
2024-01-25T01:01:45.084Z,8.72
2024-01-25T01:02:18.383Z,8.68
2024-01-25T01:02:53.148Z,8.70
2024-01-25T01:03:26.350Z,8.64
2024-01-25T01:04:00.989Z,8.58
2024-01-25T01:04:46.757Z,8.64
2024-01-25T01:05:22.014Z,8.70
2024-01-25T01:05:55.493Z,8.70
2024-01-25T01:06:28.930Z,8.68
2024-01-25T01:07:04.965Z,8.63
2024-01-25T01:07:38.513Z,8.57
2024-01-25T01:08:13.590Z,8.58
2024-01-25T01:08:47.044Z,8.63
2024-01-25T01:09:20.046Z,8.61
2024-01-25T01:09:53.078Z,8.64
2024-01-25T01:10:26.250Z,8.66
2024-01-25T01:10:59.253Z,8.65
2024-01-25T01:11:34.179Z,8.56
2024-01-25T01:12:07.970Z,8.52
2024-01-25T01:12:42.222Z,8.56
2024-01-25T01:13:15.465Z,8.56
2024-01-25T01:13:48.526Z,8.65
2024-01-25T01:14:21.500Z,8.71
2024-01-25T01:14:54.408Z,8.71
2024-01-25T01:15:27.380Z,8.68
2024-01-25T01:16:02.192Z,8.73
2024-01-25T01:16:37.429Z,8.74
2024-01-25T01:17:10.362Z,8.75
2024-01-25T01:17:43.982Z,8.75
2024-01-25T01:18:17.124Z,8.71
2024-01-25T01:18:50.489Z,8.64
2024-01-25T01:19:23.755Z,8.65
2024-01-25T01:19:56.789Z,8.59
2024-01-25T01:20:29.723Z,8.55
2024-01-25T01:21:02.660Z,8.62
2024-01-25T01:21:36.306Z,8.67
2024-01-25T01:22:09.569Z,8.64
2024-01-25T01:22:42.508Z,8.65
2024-01-25T01:23:15.613Z,8.59
2024-01-25T01:23:48.564Z,8.49
2024-01-25T01:24:21.385Z,8.51
2024-01-25T01:24:54.263Z,8.53
2024-01-25T01:25:27.240Z,8.55
2024-01-25T01:26:00.226Z,8.55
2024-01-25T01:26:33.056Z,8.57
2024-01-25T01:27:05.949Z,8.65
2024-01-25T01:27:38.824Z,8.69
2024-01-25T01:28:11.791Z,8.61
2024-01-25T01:28:44.680Z,8.62
2024-01-25T01:29:18.662Z,8.63
2024-01-25T01:29:51.567Z,8.62
2024-01-25T01:30:24.702Z,8.63
2024-01-25T01:30:57.878Z,8.59
2024-01-25T01:31:31.039Z,8.55
2024-01-25T01:32:04.453Z,8.59
2024-01-25T01:32:37.481Z,8.65
2024-01-25T01:33:10.575Z,8.62
2024-01-25T01:34:18.930Z,8.54
2024-01-25T01:34:52.255Z,8.46
2024-01-25T01:35:25.439Z,8.39
2024-01-25T01:35:58.393Z,8.42
2024-01-25T01:36:31.390Z,8.50
2024-01-25T01:37:04.527Z,8.47
2024-01-25T01:37:37.531Z,8.47
2024-01-25T01:38:15.865Z,8.48
2024-01-25T01:38:49.041Z,8.52
2024-01-25T01:39:22.003Z,8.53
2024-01-25T01:39:56.873Z,8.56
2024-01-25T01:40:29.841Z,8.60
2024-01-25T01:41:03.240Z,8.52
2024-01-25T01:41:36.211Z,8.45
2024-01-25T01:42:09.029Z,8.40
2024-01-25T01:42:44.991Z,8.45
2024-01-25T01:43:22.262Z,8.49
2024-01-25T01:43:55.692Z,8.44
2024-01-25T01:44:28.642Z,8.47
2024-01-25T01:45:01.549Z,8.51
2024-01-25T01:45:34.551Z,8.49
2024-01-25T01:46:27.370Z,8.44
2024-01-25T01:47:02.095Z,8.35
2024-01-25T01:47:35.145Z,8.31
2024-01-25T01:48:08.441Z,8.29
2024-01-25T01:48:41.798Z,8.22
2024-01-25T01:49:15.639Z,8.20
2024-01-25T01:49:49.091Z,8.31
2024-01-25T01:50:23.073Z,8.42
2024-01-25T01:50:56.169Z,8.48
2024-01-25T01:51:31.912Z,8.51
2024-01-25T01:52:05.202Z,8.48
2024-01-25T01:52:38.155Z,8.40
2024-01-25T01:53:11.732Z,8.44
2024-01-25T01:53:44.722Z,8.56
2024-01-25T01:54:17.643Z,8.62
2024-01-25T01:54:50.641Z,8.63
2024-01-25T01:55:24.619Z,8.63
2024-01-25T01:55:58.824Z,8.66
2024-01-25T01:56:33.284Z,8.69
2024-01-25T01:57:06.205Z,8.73
2024-01-25T01:57:39.246Z,8.76
2024-01-25T01:58:12.177Z,8.78
2024-01-25T01:58:45.101Z,8.80
2024-01-25T01:59:18.036Z,8.73
2024-01-25T01:59:51.258Z,8.68
2024-01-25T02:00:26.135Z,8.62
2024-01-25T02:01:01.315Z,8.61
2024-01-25T02:01:34.577Z,8.61
2024-01-25T02:02:08.459Z,8.62
2024-01-25T02:02:41.574Z,8.66
2024-01-25T02:03:14.650Z,8.61
2024-01-25T02:03:47.803Z,8.56
2024-01-25T02:04:22.138Z,8.56
2024-01-25T02:04:55.102Z,8.54
2024-01-25T02:05:27.980Z,8.49
2024-01-25T02:06:03.740Z,8.51
2024-01-25T02:06:36.788Z,8.57
2024-01-25T02:07:09.886Z,8.53
2024-01-25T02:07:43.104Z,8.53
2024-01-25T02:08:15.952Z,8.50
2024-01-25T02:08:49.401Z,8.50
2024-01-25T02:09:23.317Z,8.49
2024-01-25T02:09:56.199Z,8.44
2024-01-25T02:10:29.043Z,8.38
2024-01-25T02:11:02.013Z,8.35
2024-01-25T02:11:34.840Z,8.34
2024-01-25T02:12:08.236Z,8.36
2024-01-25T02:12:41.095Z,8.42
2024-01-25T02:13:13.993Z,8.49
2024-01-25T02:13:47.011Z,8.53
2024-01-25T02:14:19.796Z,8.53
2024-01-25T02:14:52.647Z,8.49
2024-01-25T02:15:25.579Z,8.55
2024-01-25T02:15:58.596Z,8.55
2024-01-25T02:16:31.623Z,8.48
2024-01-25T02:17:04.952Z,8.42
2024-01-25T02:17:37.998Z,8.41
2024-01-25T02:18:10.945Z,8.40
2024-01-25T02:18:43.909Z,8.42
2024-01-25T02:19:16.924Z,8.43
2024-01-25T02:19:49.829Z,8.45
2024-01-25T02:20:22.936Z,8.45
2024-01-25T02:20:55.791Z,8.48
2024-01-25T02:21:28.995Z,8.55
2024-01-25T02:22:02.021Z,8.63
2024-01-25T02:22:35.018Z,8.65
2024-01-25T02:23:07.831Z,8.58
2024-01-25T02:23:40.764Z,8.59
2024-01-25T02:24:13.819Z,8.58
2024-01-25T02:24:46.825Z,8.65
2024-01-25T02:25:19.830Z,8.76
2024-01-25T02:25:53.160Z,8.79
2024-01-25T02:26:26.407Z,8.74
2024-01-25T02:26:59.220Z,8.68
2024-01-25T02:27:32.369Z,8.65
2024-01-25T02:28:05.658Z,8.56
2024-01-25T02:28:38.566Z,8.60
2024-01-25T02:29:11.619Z,8.67
2024-01-25T02:29:44.471Z,8.74
2024-01-25T02:30:17.767Z,8.73
2024-01-25T02:30:50.629Z,8.70
2024-01-25T02:31:24.570Z,8.61
2024-01-25T02:31:57.503Z,8.63
2024-01-25T02:32:30.350Z,8.66
2024-01-25T02:33:03.349Z,8.68
2024-01-25T02:33:36.397Z,8.60
2024-01-25T02:34:09.558Z,8.59
2024-01-25T02:34:42.854Z,8.55
2024-01-25T02:35:15.907Z,8.52
2024-01-25T02:35:48.887Z,8.47
2024-01-25T02:36:23.702Z,8.52
2024-01-25T02:36:56.651Z,8.63
2024-01-25T02:37:29.507Z,8.68
2024-01-25T02:38:02.316Z,8.70
2024-01-25T02:38:35.171Z,8.73
2024-01-25T02:39:08.021Z,8.76
2024-01-25T02:39:41.522Z,8.74
2024-01-25T02:40:14.602Z,8.70
2024-01-25T02:40:47.492Z,8.72
2024-01-25T02:41:20.336Z,8.72
2024-01-25T02:41:53.332Z,8.74
2024-01-25T02:42:26.211Z,8.69
2024-01-25T02:42:59.138Z,8.66
2024-01-25T02:43:32.085Z,8.69
2024-01-25T02:44:05.382Z,8.72
2024-01-25T02:44:38.611Z,8.73
2024-01-25T02:45:11.503Z,8.68
2024-01-25T02:45:44.398Z,8.68
2024-01-25T02:46:17.224Z,8.71
2024-01-25T02:46:50.278Z,8.72
2024-01-25T02:47:23.925Z,8.71
2024-01-25T02:47:57.769Z,8.67
2024-01-25T02:48:32.801Z,8.60
2024-01-25T02:49:06.204Z,8.62
2024-01-25T02:49:39.261Z,8.67
2024-01-25T02:50:12.277Z,8.70
2024-01-25T02:50:45.054Z,8.71
2024-01-25T02:51:17.927Z,8.64
2024-01-25T02:51:50.692Z,8.60
2024-01-25T02:52:23.522Z,8.61
2024-01-25T02:52:56.347Z,8.64
2024-01-25T02:53:29.240Z,8.67
2024-01-25T02:54:02.019Z,8.64
2024-01-25T02:54:38.141Z,8.61
2024-01-25T02:55:11.049Z,8.64
2024-01-25T02:55:43.979Z,8.67
2024-01-25T02:56:16.824Z,8.68
2024-01-25T02:56:49.717Z,8.60
2024-01-25T02:57:22.722Z,8.54
2024-01-25T02:57:55.741Z,8.50
2024-01-25T02:58:28.565Z,8.55
2024-01-25T02:59:04.350Z,8.61
2024-01-25T02:59:37.369Z,8.72
2024-01-25T03:00:10.791Z,8.74
2024-01-25T03:00:43.732Z,8.82
2024-01-25T03:01:16.764Z,8.90
2024-01-25T03:01:49.860Z,8.89
2024-01-25T03:02:22.900Z,8.89
2024-01-25T03:02:55.815Z,8.88
2024-01-25T03:03:28.788Z,8.93
2024-01-25T03:04:01.773Z,8.98
2024-01-25T03:04:34.752Z,8.96
2024-01-25T03:05:08.232Z,8.93
2024-01-25T03:05:41.336Z,8.96
2024-01-25T03:06:14.386Z,8.95
2024-01-25T03:06:47.457Z,8.80
2024-01-25T03:07:20.551Z,8.73
2024-01-25T03:07:53.612Z,8.73
2024-01-25T03:08:26.653Z,8.74
2024-01-25T03:08:59.760Z,8.63
2024-01-25T03:09:32.994Z,8.59
2024-01-25T03:10:06.737Z,8.64
2024-01-25T03:10:39.650Z,8.61
2024-01-25T03:11:12.585Z,8.67
2024-01-25T03:11:45.397Z,8.69
2024-01-25T03:12:18.286Z,8.73
2024-01-25T03:12:51.126Z,8.76
2024-01-25T03:13:24.130Z,8.71
2024-01-25T03:13:57.569Z,8.65
2024-01-25T03:14:30.555Z,8.66
2024-01-25T03:15:05.124Z,8.70
2024-01-25T03:15:39.408Z,8.73
2024-01-25T03:16:12.258Z,8.79
2024-01-25T03:16:45.444Z,8.79
2024-01-25T03:17:18.296Z,8.80
2024-01-25T03:17:51.175Z,8.84
2024-01-25T03:18:26.019Z,8.80
2024-01-25T03:18:59.222Z,8.74
2024-01-25T03:19:32.404Z,8.74
2024-01-25T03:20:06.506Z,8.74
2024-01-25T03:20:39.905Z,8.76
2024-01-25T03:21:12.835Z,8.70
2024-01-25T03:21:45.902Z,8.70
2024-01-25T03:22:21.673Z,8.72
2024-01-25T03:22:55.633Z,8.74
2024-01-25T03:23:28.616Z,8.72
2024-01-25T03:24:01.853Z,8.75
2024-01-25T03:24:34.828Z,8.81
2024-01-25T03:25:10.271Z,8.81
2024-01-25T03:25:43.469Z,8.81
2024-01-25T03:26:16.580Z,8.80
2024-01-25T03:26:51.136Z,8.76
2024-01-25T03:27:24.382Z,8.80
2024-01-25T03:27:57.425Z,8.79
2024-01-25T03:28:30.412Z,8.73
2024-01-25T03:29:03.744Z,8.69
2024-01-25T03:29:36.737Z,8.66
2024-01-25T03:30:10.489Z,8.58
2024-01-25T03:30:43.695Z,8.56
2024-01-25T03:31:18.065Z,8.58
2024-01-25T03:31:51.689Z,8.62
2024-01-25T03:32:24.698Z,8.66
2024-01-25T03:32:57.657Z,8.70
2024-01-25T03:33:30.934Z,8.76
2024-01-25T03:34:04.170Z,8.78
2024-01-25T03:34:37.460Z,8.78
2024-01-25T03:35:10.839Z,8.71
2024-01-25T03:35:43.753Z,8.59
2024-01-25T03:36:16.944Z,8.59
2024-01-25T03:36:51.381Z,8.60
2024-01-25T03:37:24.259Z,8.60
2024-01-25T03:37:57.042Z,8.62
2024-01-25T03:38:29.949Z,8.58
2024-01-25T03:39:04.034Z,8.51
2024-01-25T03:39:36.968Z,8.48
2024-01-25T03:40:10.279Z,8.50
2024-01-25T03:40:44.289Z,8.50
2024-01-25T03:41:18.682Z,8.48
2024-01-25T03:41:51.599Z,8.48
2024-01-25T03:42:24.387Z,8.38
2024-01-25T03:43:08.694Z,8.45
2024-01-25T03:43:50.062Z,8.57
2024-01-25T03:44:23.097Z,8.52
2024-01-25T03:44:56.111Z,8.44
2024-01-25T03:45:29.286Z,8.47
2024-01-25T03:46:02.635Z,8.52
2024-01-25T03:46:35.564Z,8.48
2024-01-25T03:47:08.615Z,8.48
2024-01-25T03:47:41.512Z,8.53
2024-01-25T03:48:14.431Z,8.49
2024-01-25T03:48:47.209Z,8.44
2024-01-25T03:49:20.919Z,8.41
2024-01-25T03:49:54.330Z,8.38
2024-01-25T03:50:27.946Z,8.42
2024-01-25T03:51:01.014Z,8.46
2024-01-25T03:51:33.905Z,8.44
2024-01-25T03:52:06.934Z,8.45
2024-01-25T03:52:41.986Z,8.47
2024-01-25T03:53:15.859Z,8.46
2024-01-25T03:53:49.148Z,8.43
2024-01-25T03:54:22.407Z,8.40
2024-01-25T03:54:55.341Z,8.37
2024-01-25T03:55:28.462Z,8.43
2024-01-25T03:56:01.360Z,8.41
2024-01-25T03:56:34.293Z,8.43
2024-01-25T03:57:08.961Z,8.45
2024-01-25T03:57:43.333Z,8.48
2024-01-25T03:58:19.478Z,8.44
2024-01-25T03:58:52.501Z,8.46
2024-01-25T03:59:25.390Z,8.44
2024-01-25T03:59:58.364Z,8.40
2024-01-25T04:00:31.566Z,8.33
2024-01-25T04:01:04.809Z,8.31
2024-01-25T04:01:45.468Z,8.32
2024-01-25T04:02:18.683Z,8.35
2024-01-25T04:02:51.960Z,8.34
2024-01-25T04:03:25.041Z,8.32
2024-01-25T04:03:57.945Z,8.37
2024-01-25T04:04:31.018Z,8.34
2024-01-25T04:05:05.229Z,8.35
2024-01-25T04:05:38.689Z,8.37
2024-01-25T04:06:11.625Z,8.43
2024-01-25T04:06:45.038Z,8.43
2024-01-25T04:07:17.962Z,8.31
2024-01-25T04:07:50.923Z,8.25
2024-01-25T04:08:23.713Z,8.33
2024-01-25T04:08:56.586Z,8.39
2024-01-25T04:09:29.444Z,8.46
2024-01-25T04:10:02.601Z,8.48
2024-01-25T04:10:35.461Z,8.44
2024-01-25T04:11:10.248Z,8.46
2024-01-25T04:11:43.172Z,8.45
2024-01-25T04:12:16.025Z,8.45
2024-01-25T04:12:48.902Z,8.41
2024-01-25T04:13:21.944Z,8.39
2024-01-25T04:13:54.868Z,8.35
2024-01-25T04:14:27.819Z,8.34
2024-01-25T04:15:01.095Z,8.35
2024-01-25T04:15:34.160Z,8.37
2024-01-25T04:16:07.470Z,8.41
2024-01-25T04:16:40.729Z,8.46
2024-01-25T04:17:13.601Z,8.51
2024-01-25T04:17:46.556Z,8.55
2024-01-25T04:18:19.695Z,8.56
2024-01-25T04:18:52.909Z,8.50
2024-01-25T04:19:25.978Z,8.46
2024-01-25T04:19:58.875Z,8.42
2024-01-25T04:20:32.980Z,8.45
2024-01-25T04:21:06.091Z,8.46
2024-01-25T04:21:39.038Z,8.46
2024-01-25T04:22:11.919Z,8.48
2024-01-25T04:22:44.869Z,8.43
2024-01-25T04:23:18.302Z,8.43
2024-01-25T04:23:51.078Z,8.45
2024-01-25T04:24:24.013Z,8.41
2024-01-25T04:24:56.992Z,8.44
2024-01-25T04:25:31.186Z,8.48
2024-01-25T04:26:06.855Z,8.52
2024-01-25T04:26:39.695Z,8.43
2024-01-25T04:27:12.573Z,8.41
2024-01-25T04:27:45.632Z,8.41
2024-01-25T04:28:18.552Z,8.46
2024-01-25T04:28:51.515Z,8.53
2024-01-25T04:29:24.768Z,8.56
2024-01-25T04:29:57.605Z,8.50
2024-01-25T04:30:32.254Z,8.57
2024-01-25T04:31:05.324Z,8.60
2024-01-25T04:31:46.443Z,8.63
2024-01-25T04:32:19.538Z,8.67
2024-01-25T04:32:53.024Z,8.59
2024-01-25T04:33:26.288Z,8.51
2024-01-25T04:33:59.545Z,8.54
2024-01-25T04:34:32.908Z,8.48
2024-01-25T04:35:06.399Z,8.39
2024-01-25T04:35:39.653Z,8.33
2024-01-25T04:36:13.933Z,8.36
2024-01-25T04:36:47.043Z,8.40
2024-01-25T04:37:20.203Z,8.38
2024-01-25T04:37:53.273Z,8.40
2024-01-25T04:38:26.453Z,8.40
2024-01-25T04:38:59.436Z,8.36
2024-01-25T04:39:32.518Z,8.34
2024-01-25T04:40:06.523Z,8.34
2024-01-25T04:40:40.884Z,8.38
2024-01-25T04:41:13.913Z,8.36
2024-01-25T04:41:46.712Z,8.34
2024-01-25T04:42:19.685Z,8.38
2024-01-25T04:42:52.693Z,8.46
2024-01-25T04:43:25.697Z,8.44
2024-01-25T04:43:58.626Z,8.39
2024-01-25T04:44:31.536Z,8.39
2024-01-25T04:45:06.515Z,8.43
2024-01-25T04:45:39.589Z,8.39
2024-01-25T04:46:12.743Z,8.32
2024-01-25T04:46:45.743Z,8.31
2024-01-25T04:47:18.648Z,8.29
2024-01-25T04:47:51.593Z,8.33
2024-01-25T04:48:24.566Z,8.36
2024-01-25T04:48:58.956Z,8.36
2024-01-25T04:49:32.114Z,8.35
2024-01-25T04:50:05.599Z,8.35
2024-01-25T04:50:40.541Z,8.35
2024-01-25T04:51:18.039Z,8.38
2024-01-25T04:51:51.891Z,8.42
2024-01-25T04:52:24.982Z,8.44
2024-01-25T04:52:58.315Z,8.45
2024-01-25T04:53:31.630Z,8.42
2024-01-25T04:54:04.616Z,8.34
2024-01-25T04:54:37.590Z,8.29
2024-01-25T04:55:10.546Z,8.35
2024-01-25T04:55:43.502Z,8.38
2024-01-25T04:56:16.437Z,8.34
2024-01-25T04:56:49.321Z,8.34
2024-01-25T04:57:22.549Z,8.37
2024-01-25T04:57:55.444Z,8.34
2024-01-25T04:58:28.336Z,8.34
2024-01-25T04:59:01.149Z,8.40
2024-01-25T04:59:34.640Z,8.44
2024-01-25T05:00:07.953Z,8.48
2024-01-25T05:00:41.152Z,8.51
2024-01-25T05:01:14.168Z,8.54
2024-01-25T05:01:47.344Z,8.57
2024-01-25T05:02:21.980Z,8.57
2024-01-25T05:02:54.966Z,8.56
2024-01-25T05:03:28.060Z,8.47
2024-01-25T05:04:01.367Z,8.45
2024-01-25T05:04:35.889Z,8.41
2024-01-25T05:05:09.122Z,8.36
2024-01-25T05:05:42.029Z,8.34
2024-01-25T05:06:14.932Z,8.31
2024-01-25T05:07:09.082Z,8.32
2024-01-25T05:07:42.506Z,8.37
2024-01-25T05:08:15.726Z,8.44
2024-01-25T05:08:48.683Z,8.50
2024-01-25T05:09:21.674Z,8.51
2024-01-25T05:09:54.624Z,8.48
2024-01-25T05:10:27.909Z,8.40
2024-01-25T05:11:02.816Z,8.36
2024-01-25T05:11:44.636Z,8.39
2024-01-25T05:12:18.130Z,8.42
2024-01-25T05:12:50.992Z,8.32
2024-01-25T05:13:24.379Z,8.18
2024-01-25T05:13:57.244Z,8.12
2024-01-25T05:14:30.220Z,8.18
2024-01-25T05:15:05.095Z,8.18
2024-01-25T05:15:38.244Z,8.17
2024-01-25T05:16:11.308Z,8.21
2024-01-25T05:16:44.230Z,8.22
2024-01-25T05:17:17.165Z,8.18
2024-01-25T05:17:50.174Z,8.19
2024-01-25T05:18:24.234Z,8.22
2024-01-25T05:18:57.348Z,8.26
2024-01-25T05:19:31.838Z,8.28
2024-01-25T05:20:05.370Z,8.31
2024-01-25T05:20:39.127Z,8.26
2024-01-25T05:21:12.327Z,8.24
2024-01-25T05:21:45.240Z,8.17
2024-01-25T05:22:18.272Z,8.15
2024-01-25T05:22:51.185Z,8.19
2024-01-25T05:23:24.384Z,8.26
2024-01-25T05:23:57.340Z,8.36
2024-01-25T05:24:30.122Z,8.44
2024-01-25T05:25:03.514Z,8.52
2024-01-25T05:25:36.379Z,8.61
2024-01-25T05:26:09.255Z,8.63
2024-01-25T05:26:42.239Z,8.57
2024-01-25T05:27:15.160Z,8.54
2024-01-25T05:27:48.154Z,8.53
2024-01-25T05:28:21.341Z,8.49
2024-01-25T05:28:54.308Z,8.42
2024-01-25T05:29:27.413Z,8.45
2024-01-25T05:30:00.306Z,8.44
2024-01-25T05:30:33.378Z,8.44
2024-01-25T05:31:06.994Z,8.37
2024-01-25T05:31:40.048Z,8.36
2024-01-25T05:32:13.044Z,8.35
2024-01-25T05:32:49.882Z,8.37
2024-01-25T05:33:23.578Z,8.32
2024-01-25T05:33:56.676Z,8.31
2024-01-25T05:34:29.803Z,8.34
2024-01-25T05:35:03.487Z,8.41
2024-01-25T05:35:36.691Z,8.34
2024-01-25T05:36:09.817Z,8.38
2024-01-25T05:36:45.509Z,8.42
2024-01-25T05:37:18.658Z,8.42
2024-01-25T05:37:51.986Z,8.36
2024-01-25T05:38:24.921Z,8.31
2024-01-25T05:38:57.800Z,8.31
2024-01-25T05:39:30.738Z,8.38
2024-01-25T05:40:04.042Z,8.44
2024-01-25T05:40:36.957Z,8.45
2024-01-25T05:41:11.751Z,8.44
2024-01-25T05:41:47.612Z,8.42
2024-01-25T05:42:20.502Z,8.37
2024-01-25T05:42:53.415Z,8.34
2024-01-25T05:43:26.789Z,8.22
2024-01-25T05:43:59.677Z,8.18
2024-01-25T05:44:32.592Z,8.21
2024-01-25T05:45:06.395Z,8.24
2024-01-25T05:45:41.298Z,8.27
2024-01-25T05:46:14.222Z,8.29
2024-01-25T05:46:47.074Z,8.22
2024-01-25T05:47:20.022Z,8.18
2024-01-25T05:47:53.382Z,8.19
2024-01-25T05:48:26.359Z,8.20
2024-01-25T05:48:59.975Z,8.25
2024-01-25T05:49:33.117Z,8.22
2024-01-25T05:50:06.716Z,8.17
2024-01-25T05:50:39.862Z,8.17
2024-01-25T05:51:14.957Z,8.24
2024-01-25T05:51:47.929Z,8.32
2024-01-25T05:52:22.630Z,8.34
2024-01-25T05:52:55.528Z,8.29
2024-01-25T05:53:28.456Z,8.25
2024-01-25T05:54:01.805Z,8.24
2024-01-25T05:54:34.720Z,8.24
2024-01-25T05:55:07.906Z,8.20
2024-01-25T05:55:40.864Z,8.24
2024-01-25T05:56:13.845Z,8.28
2024-01-25T05:56:47.177Z,8.28
2024-01-25T05:57:20.463Z,8.28
2024-01-25T05:57:53.811Z,8.33
2024-01-25T05:58:26.987Z,8.26
2024-01-25T05:58:59.954Z,8.18
2024-01-25T05:59:32.901Z,8.15
2024-01-25T06:00:06.764Z,8.16
2024-01-25T06:00:39.952Z,8.18
2024-01-25T06:01:13.073Z,8.23
2024-01-25T06:01:46.133Z,8.26
2024-01-25T06:02:19.322Z,8.13
2024-01-25T06:02:52.245Z,8.04
2024-01-25T06:03:25.193Z,7.97
2024-01-25T06:03:58.289Z,7.94
2024-01-25T06:04:31.215Z,7.94
2024-01-25T06:05:04.548Z,8.04
2024-01-25T06:05:37.844Z,8.13
2024-01-25T06:06:10.936Z,8.12
2024-01-25T06:06:43.905Z,8.04
2024-01-25T06:07:16.957Z,8.02
2024-01-25T06:07:51.252Z,8.08
2024-01-25T06:08:24.470Z,8.16
2024-01-25T06:09:02.689Z,8.23
2024-01-25T06:09:44.540Z,8.31
2024-01-25T06:10:17.426Z,8.29
2024-01-25T06:10:50.273Z,8.27
2024-01-25T06:11:23.591Z,8.31
2024-01-25T06:11:56.546Z,8.30
2024-01-25T06:12:29.519Z,8.30
2024-01-25T06:13:02.742Z,8.37
2024-01-25T06:13:35.905Z,8.38
2024-01-25T06:14:09.865Z,8.35
2024-01-25T06:14:42.839Z,8.39
2024-01-25T06:15:15.676Z,8.36
2024-01-25T06:15:49.008Z,8.25
2024-01-25T06:16:21.939Z,8.14
2024-01-25T06:16:54.888Z,8.16
2024-01-25T06:17:27.692Z,8.17
2024-01-25T06:18:00.621Z,8.21
2024-01-25T06:18:33.545Z,8.20
2024-01-25T06:19:06.573Z,8.12
2024-01-25T06:19:39.558Z,8.08
2024-01-25T06:20:12.746Z,8.12
2024-01-25T06:20:45.809Z,8.17
2024-01-25T06:21:18.689Z,8.23
2024-01-25T06:21:51.580Z,8.26
2024-01-25T06:22:25.711Z,8.24
2024-01-25T06:22:58.784Z,8.25
2024-01-25T06:23:31.869Z,8.31
2024-01-25T06:24:06.003Z,8.31
2024-01-25T06:24:38.938Z,8.28
2024-01-25T06:25:12.024Z,8.30
2024-01-25T06:25:44.933Z,8.34
2024-01-25T06:26:17.692Z,8.31
2024-01-25T06:26:50.774Z,8.29
2024-01-25T06:27:23.824Z,8.28
2024-01-25T06:27:58.411Z,8.24
2024-01-25T06:28:31.360Z,8.24
2024-01-25T06:29:04.307Z,8.21
2024-01-25T06:29:37.215Z,8.26
2024-01-25T06:30:10.588Z,8.28
2024-01-25T06:30:43.526Z,8.23
2024-01-25T06:31:16.934Z,8.23
2024-01-25T06:31:49.982Z,8.17
2024-01-25T06:32:26.850Z,8.12
2024-01-25T06:33:00.300Z,8.14
2024-01-25T06:33:33.591Z,8.23
2024-01-25T06:34:06.611Z,8.25
2024-01-25T06:34:39.604Z,8.28
2024-01-25T06:35:12.686Z,8.31
2024-01-25T06:35:45.584Z,8.32
2024-01-25T06:36:18.433Z,8.33
2024-01-25T06:36:51.336Z,8.34
2024-01-25T06:37:24.372Z,8.37
2024-01-25T06:37:57.262Z,8.43
2024-01-25T06:38:30.099Z,8.41
2024-01-25T06:39:03.007Z,8.37
2024-01-25T06:39:35.976Z,8.34
2024-01-25T06:40:09.092Z,8.28
2024-01-25T06:40:41.948Z,8.34
2024-01-25T06:41:15.054Z,8.39
2024-01-25T06:41:47.985Z,8.45
2024-01-25T06:42:20.787Z,8.52
2024-01-25T06:42:53.679Z,8.52
2024-01-25T06:43:26.782Z,8.44
2024-01-25T06:44:00.334Z,8.43
2024-01-25T06:44:33.257Z,8.42
2024-01-25T06:45:06.281Z,8.44
2024-01-25T06:45:41.495Z,8.39
2024-01-25T06:46:15.683Z,8.44
2024-01-25T06:46:48.777Z,8.43
2024-01-25T06:47:23.504Z,8.43
2024-01-25T06:47:57.075Z,8.42
2024-01-25T06:48:30.075Z,8.37
2024-01-25T06:49:04.154Z,8.37
2024-01-25T06:49:37.069Z,8.39
2024-01-25T06:50:10.396Z,8.41
2024-01-25T06:50:44.425Z,8.39
2024-01-25T06:51:17.611Z,8.41
2024-01-25T06:51:51.099Z,8.37
2024-01-25T06:52:25.153Z,8.37
2024-01-25T06:52:59.070Z,8.38
2024-01-25T06:53:31.961Z,8.43
2024-01-25T06:54:04.923Z,8.51
2024-01-25T06:54:39.613Z,8.58
2024-01-25T06:55:12.766Z,8.62
2024-01-25T06:55:45.765Z,8.56
2024-01-25T06:56:18.708Z,8.53
2024-01-25T06:56:52.551Z,8.59
2024-01-25T06:57:25.462Z,8.63
2024-01-25T06:57:59.014Z,8.59
2024-01-25T06:58:32.224Z,8.57
2024-01-25T06:59:07.625Z,8.48
2024-01-25T06:59:42.668Z,8.42
2024-01-25T07:00:17.056Z,8.47
2024-01-25T07:00:50.566Z,8.52
2024-01-25T07:01:24.430Z,8.54
2024-01-25T07:01:58.111Z,8.56
2024-01-25T07:02:32.136Z,8.55
2024-01-25T07:03:06.434Z,8.53
2024-01-25T07:03:41.724Z,8.49
2024-01-25T07:04:15.830Z,8.50
2024-01-25T07:04:49.330Z,8.48
2024-01-25T07:05:22.681Z,8.48
2024-01-25T07:05:56.018Z,8.49
2024-01-25T07:06:29.861Z,8.50
2024-01-25T07:07:04.177Z,8.58
2024-01-25T07:07:39.590Z,8.58
2024-01-25T07:08:14.702Z,8.53
2024-01-25T07:08:47.738Z,8.50
2024-01-25T07:09:20.656Z,8.49
2024-01-25T07:09:53.657Z,8.52
2024-01-25T07:10:26.960Z,8.51
2024-01-25T07:11:02.483Z,8.53
2024-01-25T07:11:35.451Z,8.54
2024-01-25T07:12:08.420Z,8.53
2024-01-25T07:12:41.464Z,8.51
2024-01-25T07:13:14.415Z,8.48
2024-01-25T07:13:47.459Z,8.52
2024-01-25T07:14:20.443Z,8.55
2024-01-25T07:14:53.388Z,8.58
2024-01-25T07:15:26.831Z,8.59
2024-01-25T07:15:59.840Z,8.58
2024-01-25T07:16:32.920Z,8.58
2024-01-25T07:17:05.857Z,8.53
2024-01-25T07:17:38.816Z,8.49
2024-01-25T07:18:12.090Z,8.54
2024-01-25T07:18:45.254Z,8.61
2024-01-25T07:19:18.874Z,8.67
2024-01-25T07:19:52.016Z,8.67
2024-01-25T07:20:25.499Z,8.72
2024-01-25T07:20:58.527Z,8.68
2024-01-25T07:21:34.270Z,8.67
2024-01-25T07:22:07.446Z,8.74
2024-01-25T07:22:40.947Z,8.78
2024-01-25T07:23:13.842Z,8.74
2024-01-25T07:23:46.653Z,8.68
2024-01-25T07:24:19.528Z,8.70
2024-01-25T07:24:52.323Z,8.72
2024-01-25T07:25:25.516Z,8.64
2024-01-25T07:25:58.321Z,8.60
2024-01-25T07:26:31.470Z,8.62
2024-01-25T07:27:04.878Z,8.67
2024-01-25T07:27:37.800Z,8.70